sensor_id;sensor_type;location;lat;lon;timestamp;pressure;altitude;pressure_sealevel;temperature;humidity
740;BME280;354;42.694;23.336;2023-02-23T00:01:43;95122.13;;;6.10;100.00
740;BME280;354;42.694;23.336;2023-02-23T00:04:08;95148.03;;;6.12;100.00
740;BME280;354;42.694;23.336;2023-02-23T00:06:35;95156.97;;;6.02;100.00
740;BME280;354;42.694;23.336;2023-02-23T00:09:01;95166.34;;;5.97;100.00
740;BME280;354;42.694;23.336;2023-02-23T00:11:27;95145.84;;;5.94;100.00
740;BME280;354;42.694;23.336;2023-02-23T00:13:53;95168.13;;;5.96;100.00
740;BME280;354;42.694;23.336;2023-02-23T00:16:23;95157.94;;;5.87;100.00
740;BME280;354;42.694;23.336;2023-02-23T00:18:53;95165.44;;;5.90;100.00
740;BME280;354;42.694;23.336;2023-02-23T00:21:27;95166.31;;;5.82;100.00
740;BME280;354;42.694;23.336;2023-02-23T00:24:05;95163.09;;;5.80;100.00
740;BME280;354;42.694;23.336;2023-02-23T00:26:32;95147.44;;;5.80;100.00
740;BME280;354;42.694;23.336;2023-02-23T00:29:00;95151.94;;;5.86;100.00
740;BME280;354;42.694;23.336;2023-02-23T00:31:27;95157.16;;;5.86;100.00
740;BME280;354;42.694;23.336;2023-02-23T00:33:54;95169.41;;;6.00;100.00
740;BME280;354;42.694;23.336;2023-02-23T00:36:22;95172.69;;;6.09;100.00
740;BME280;354;42.694;23.336;2023-02-23T00:38:52;95173.59;;;6.16;100.00
740;BME280;354;42.694;23.336;2023-02-23T00:41:17;95167.94;;;5.98;100.00
740;BME280;354;42.694;23.336;2023-02-23T00:43:46;95155.53;;;5.85;100.00
740;BME280;354;42.694;23.336;2023-02-23T00:46:14;95173.16;;;5.98;100.00
740;BME280;354;42.694;23.336;2023-02-23T00:48:43;95147.00;;;5.76;100.00
740;BME280;354;42.694;23.336;2023-02-23T00:51:10;95170.00;;;5.88;100.00
740;BME280;354;42.694;23.336;2023-02-23T00:53:35;95121.50;;;5.57;100.00
740;BME280;354;42.694;23.336;2023-02-23T00:56:05;95153.84;;;5.77;100.00
740;BME280;354;42.694;23.336;2023-02-23T00:58:31;95169.41;;;5.71;100.00
740;BME280;354;42.694;23.336;2023-02-23T01:00:57;95163.03;;;5.59;100.00
740;BME280;354;42.694;23.336;2023-02-23T01:03:24;95160.16;;;5.68;100.00
740;BME280;354;42.694;23.336;2023-02-23T01:05:50;95157.81;;;5.73;100.00
740;BME280;354;42.694;23.336;2023-02-23T01:08:19;95159.69;;;5.65;100.00
740;BME280;354;42.694;23.336;2023-02-23T01:10:45;95162.41;;;5.57;100.00
740;BME280;354;42.694;23.336;2023-02-23T01:13:21;95158.75;;;5.51;100.00
740;BME280;354;42.694;23.336;2023-02-23T01:15:47;95146.59;;;5.28;100.00
740;BME280;354;42.694;23.336;2023-02-23T01:18:15;95157.66;;;5.45;100.00
740;BME280;354;42.694;23.336;2023-02-23T01:20:42;95160.28;;;5.45;100.00
740;BME280;354;42.694;23.336;2023-02-23T01:23:12;95160.19;;;5.39;100.00
740;BME280;354;42.694;23.336;2023-02-23T01:25:40;95164.06;;;5.28;100.00
740;BME280;354;42.694;23.336;2023-02-23T01:28:08;95152.16;;;5.25;100.00
740;BME280;354;42.694;23.336;2023-02-23T01:30:33;95159.19;;;5.40;100.00
740;BME280;354;42.694;23.336;2023-02-23T01:32:59;95137.59;;;5.16;100.00
740;BME280;354;42.694;23.336;2023-02-23T01:35:26;95157.41;;;5.40;100.00
740;BME280;354;42.694;23.336;2023-02-23T01:37:52;95143.28;;;5.35;100.00
740;BME280;354;42.694;23.336;2023-02-23T01:40:20;95159.53;;;5.51;100.00
740;BME280;354;42.694;23.336;2023-02-23T01:43:16;95158.94;;;5.35;100.00
740;BME280;354;42.694;23.336;2023-02-23T01:45:43;95161.97;;;5.38;100.00
740;BME280;354;42.694;23.336;2023-02-23T01:48:16;95156.38;;;5.26;100.00
740;BME280;354;42.694;23.336;2023-02-23T01:50:53;95155.97;;;5.23;100.00
740;BME280;354;42.694;23.336;2023-02-23T01:53:20;95131.31;;;5.11;100.00
740;BME280;354;42.694;23.336;2023-02-23T01:55:56;95146.34;;;5.23;100.00
740;BME280;354;42.694;23.336;2023-02-23T01:58:23;95150.03;;;5.29;100.00
740;BME280;354;42.694;23.336;2023-02-23T02:00:54;95148.75;;;5.25;100.00
740;BME280;354;42.694;23.336;2023-02-23T02:03:28;95123.59;;;5.02;100.00
740;BME280;354;42.694;23.336;2023-02-23T02:05:55;95132.66;;;5.21;100.00
740;BME280;354;42.694;23.336;2023-02-23T02:08:22;95144.72;;;5.22;100.00
740;BME280;354;42.694;23.336;2023-02-23T02:10:50;95137.41;;;5.03;100.00
740;BME280;354;42.694;23.336;2023-02-23T02:13:21;95144.72;;;5.08;100.00
740;BME280;354;42.694;23.336;2023-02-23T02:16:08;95126.66;;;5.06;100.00
740;BME280;354;42.694;23.336;2023-02-23T02:39:11;95147.34;;;5.22;100.00
740;BME280;354;42.694;23.336;2023-02-23T02:42:31;95149.47;;;5.04;100.00
740;BME280;354;42.694;23.336;2023-02-23T02:45:11;95126.72;;;4.98;100.00
740;BME280;354;42.694;23.336;2023-02-23T02:47:53;95145.16;;;5.11;100.00
740;BME280;354;42.694;23.336;2023-02-23T02:50:40;95149.31;;;5.06;100.00
740;BME280;354;42.694;23.336;2023-02-23T02:53:09;95137.41;;;4.88;100.00
740;BME280;354;42.694;23.336;2023-02-23T02:55:38;95128.34;;;4.84;100.00
740;BME280;354;42.694;23.336;2023-02-23T02:58:09;95151.16;;;4.97;100.00
740;BME280;354;42.694;23.336;2023-02-23T03:00:37;95148.38;;;4.98;100.00
740;BME280;354;42.694;23.336;2023-02-23T03:03:35;95155.38;;;4.98;100.00
740;BME280;354;42.694;23.336;2023-02-23T03:06:31;95148.91;;;4.94;100.00
740;BME280;354;42.694;23.336;2023-02-23T03:09:50;95152.69;;;4.91;100.00
740;BME280;354;42.694;23.336;2023-02-23T03:12:42;95153.03;;;4.88;100.00
740;BME280;354;42.694;23.336;2023-02-23T03:15:41;95154.78;;;4.96;100.00
740;BME280;354;42.694;23.336;2023-02-23T03:21:50;95161.75;;;4.81;100.00
740;BME280;354;42.694;23.336;2023-02-23T03:27:42;95161.41;;;4.61;100.00
740;BME280;354;42.694;23.336;2023-02-23T03:30:33;95166.53;;;4.54;100.00
740;BME280;354;42.694;23.336;2023-02-23T03:33:31;95165.25;;;4.50;100.00
740;BME280;354;42.694;23.336;2023-02-23T03:36:29;95170.47;;;4.50;100.00
740;BME280;354;42.694;23.336;2023-02-23T03:39:20;95167.13;;;4.41;100.00
740;BME280;354;42.694;23.336;2023-02-23T03:42:11;95162.44;;;4.37;100.00
740;BME280;354;42.694;23.336;2023-02-23T03:45:03;95168.66;;;4.28;100.00
740;BME280;354;42.694;23.336;2023-02-23T03:47:49;95169.25;;;4.38;100.00
740;BME280;354;42.694;23.336;2023-02-23T03:50:46;95178.06;;;4.37;100.00
740;BME280;354;42.694;23.336;2023-02-23T03:56:34;95186.56;;;4.31;100.00
740;BME280;354;42.694;23.336;2023-02-23T03:59:24;95169.31;;;4.30;100.00
740;BME280;354;42.694;23.336;2023-02-23T04:02:10;95168.38;;;4.22;100.00
740;BME280;354;42.694;23.336;2023-02-23T04:04:58;95181.63;;;4.13;100.00
740;BME280;354;42.694;23.336;2023-02-23T04:07:46;95182.75;;;4.18;100.00
740;BME280;354;42.694;23.336;2023-02-23T04:10:33;95181.56;;;4.21;100.00
740;BME280;354;42.694;23.336;2023-02-23T04:13:25;95186.16;;;4.19;100.00
740;BME280;354;42.694;23.336;2023-02-23T04:16:06;95185.09;;;4.28;100.00
740;BME280;354;42.694;23.336;2023-02-23T04:18:34;95179.78;;;4.21;100.00
740;BME280;354;42.694;23.336;2023-02-23T04:21:01;95174.38;;;4.00;100.00
740;BME280;354;42.694;23.336;2023-02-23T04:23:27;95163.84;;;3.93;100.00
740;BME280;354;42.694;23.336;2023-02-23T04:25:54;95172.75;;;3.99;100.00
740;BME280;354;42.694;23.336;2023-02-23T04:28:20;95173.13;;;3.96;100.00
740;BME280;354;42.694;23.336;2023-02-23T04:30:46;95176.97;;;4.00;100.00
740;BME280;354;42.694;23.336;2023-02-23T04:33:12;95175.88;;;3.94;100.00
740;BME280;354;42.694;23.336;2023-02-23T04:35:38;95183.38;;;3.89;100.00
740;BME280;354;42.694;23.336;2023-02-23T04:38:04;95180.75;;;3.97;100.00
740;BME280;354;42.694;23.336;2023-02-23T04:40:29;95170.91;;;3.85;100.00
740;BME280;354;42.694;23.336;2023-02-23T04:42:55;95172.72;;;3.76;100.00
740;BME280;354;42.694;23.336;2023-02-23T04:45:22;95165.31;;;3.65;100.00
740;BME280;354;42.694;23.336;2023-02-23T04:47:48;95190.72;;;3.86;100.00
740;BME280;354;42.694;23.336;2023-02-23T04:50:14;95157.81;;;3.70;100.00
740;BME280;354;42.694;23.336;2023-02-23T04:52:39;95188.13;;;3.86;100.00
740;BME280;354;42.694;23.336;2023-02-23T04:55:06;95170.94;;;3.77;100.00
740;BME280;354;42.694;23.336;2023-02-23T04:57:32;95166.78;;;3.59;100.00
740;BME280;354;42.694;23.336;2023-02-23T04:59:58;95195.34;;;3.67;100.00
740;BME280;354;42.694;23.336;2023-02-23T05:02:23;95181.03;;;3.72;100.00
740;BME280;354;42.694;23.336;2023-02-23T05:04:49;95189.94;;;3.85;100.00
740;BME280;354;42.694;23.336;2023-02-23T05:07:15;95179.66;;;3.84;100.00
740;BME280;354;42.694;23.336;2023-02-23T05:09:40;95176.44;;;3.82;100.00
740;BME280;354;42.694;23.336;2023-02-23T05:12:06;95178.72;;;3.85;100.00
740;BME280;354;42.694;23.336;2023-02-23T05:14:31;95199.47;;;3.93;100.00
740;BME280;354;42.694;23.336;2023-02-23T05:16:57;95194.75;;;3.96;100.00
740;BME280;354;42.694;23.336;2023-02-23T05:19:22;95197.50;;;3.95;100.00
740;BME280;354;42.694;23.336;2023-02-23T05:21:48;95187.47;;;3.84;100.00
740;BME280;354;42.694;23.336;2023-02-23T05:24:15;95202.44;;;3.82;100.00
740;BME280;354;42.694;23.336;2023-02-23T05:26:41;95202.06;;;3.93;100.00
740;BME280;354;42.694;23.336;2023-02-23T05:29:07;95188.25;;;3.92;100.00
740;BME280;354;42.694;23.336;2023-02-23T05:31:32;95189.78;;;4.10;100.00
740;BME280;354;42.694;23.336;2023-02-23T05:33:58;95199.84;;;4.13;100.00
740;BME280;354;42.694;23.336;2023-02-23T05:36:23;95200.41;;;4.00;100.00
740;BME280;354;42.694;23.336;2023-02-23T05:38:49;95215.06;;;4.01;100.00
740;BME280;354;42.694;23.336;2023-02-23T05:41:17;95212.09;;;4.04;100.00
740;BME280;354;42.694;23.336;2023-02-23T05:43:42;95212.72;;;4.06;100.00
740;BME280;354;42.694;23.336;2023-02-23T05:46:14;95202.69;;;3.95;100.00
740;BME280;354;42.694;23.336;2023-02-23T05:48:40;95199.47;;;3.93;100.00
740;BME280;354;42.694;23.336;2023-02-23T05:51:08;95210.06;;;3.83;100.00
740;BME280;354;42.694;23.336;2023-02-23T05:53:34;95214.59;;;3.89;100.00
740;BME280;354;42.694;23.336;2023-02-23T05:56:01;95233.84;;;4.11;100.00
740;BME280;354;42.694;23.336;2023-02-23T05:58:27;95225.88;;;4.13;100.00
740;BME280;354;42.694;23.336;2023-02-23T06:00:52;95241.22;;;4.31;100.00
740;BME280;354;42.694;23.336;2023-02-23T06:03:18;95225.22;;;4.42;100.00
740;BME280;354;42.694;23.336;2023-02-23T06:05:54;95247.66;;;4.66;100.00
740;BME280;354;42.694;23.336;2023-02-23T06:08:19;95226.50;;;4.69;100.00
740;BME280;354;42.694;23.336;2023-02-23T06:10:45;95252.31;;;4.79;100.00
740;BME280;354;42.694;23.336;2023-02-23T06:13:12;95236.44;;;4.88;100.00
740;BME280;354;42.694;23.336;2023-02-23T06:15:38;95253.97;;;5.17;100.00
740;BME280;354;42.694;23.336;2023-02-23T06:18:04;95248.22;;;5.22;100.00
740;BME280;354;42.694;23.336;2023-02-23T06:20:29;95254.16;;;5.31;100.00
740;BME280;354;42.694;23.336;2023-02-23T06:22:55;95251.91;;;5.42;100.00
740;BME280;354;42.694;23.336;2023-02-23T06:25:22;95252.38;;;5.46;100.00
740;BME280;354;42.694;23.336;2023-02-23T06:27:47;95250.69;;;5.68;100.00
740;BME280;354;42.694;23.336;2023-02-23T06:30:13;95237.72;;;5.74;100.00
740;BME280;354;42.694;23.336;2023-02-23T06:32:39;95258.72;;;5.96;100.00
740;BME280;354;42.694;23.336;2023-02-23T06:35:06;95227.19;;;5.82;100.00
740;BME280;354;42.694;23.336;2023-02-23T06:37:33;95256.09;;;5.96;100.00
740;BME280;354;42.694;23.336;2023-02-23T06:39:58;95263.13;;;5.95;100.00
740;BME280;354;42.694;23.336;2023-02-23T06:42:24;95254.28;;;5.96;100.00
740;BME280;354;42.694;23.336;2023-02-23T06:44:50;95247.09;;;5.84;100.00
740;BME280;354;42.694;23.336;2023-02-23T06:47:15;95260.94;;;5.84;100.00
740;BME280;354;42.694;23.336;2023-02-23T06:49:41;95263.72;;;5.82;100.00
740;BME280;354;42.694;23.336;2023-02-23T06:52:07;95268.97;;;5.82;100.00
740;BME280;354;42.694;23.336;2023-02-23T06:54:33;95252.91;;;5.86;100.00
740;BME280;354;42.694;23.336;2023-02-23T06:56:59;95261.94;;;5.83;100.00
740;BME280;354;42.694;23.336;2023-02-23T06:59:24;95246.63;;;5.80;100.00
740;BME280;354;42.694;23.336;2023-02-23T07:01:50;95270.69;;;6.05;100.00
740;BME280;354;42.694;23.336;2023-02-23T07:04:16;95255.44;;;6.08;100.00
740;BME280;354;42.694;23.336;2023-02-23T07:06:41;95253.84;;;6.07;100.00
740;BME280;354;42.694;23.336;2023-02-23T07:09:07;95257.41;;;6.21;100.00
740;BME280;354;42.694;23.336;2023-02-23T07:11:32;95263.41;;;6.37;100.00
740;BME280;354;42.694;23.336;2023-02-23T07:13:59;95264.56;;;6.49;100.00
740;BME280;354;42.694;23.336;2023-02-23T07:16:26;95251.75;;;6.54;100.00
740;BME280;354;42.694;23.336;2023-02-23T07:18:52;95246.75;;;6.59;100.00
740;BME280;354;42.694;23.336;2023-02-23T07:21:18;95263.66;;;6.78;100.00
740;BME280;354;42.694;23.336;2023-02-23T07:23:45;95266.47;;;6.98;100.00
740;BME280;354;42.694;23.336;2023-02-23T07:26:12;95262.34;;;7.10;100.00
740;BME280;354;42.694;23.336;2023-02-23T07:28:40;95262.31;;;7.31;100.00
740;BME280;354;42.694;23.336;2023-02-23T07:31:05;95229.75;;;7.40;100.00
740;BME280;354;42.694;23.336;2023-02-23T07:33:31;95252.47;;;7.68;100.00
740;BME280;354;42.694;23.336;2023-02-23T07:35:56;95246.88;;;7.71;100.00
740;BME280;354;42.694;23.336;2023-02-23T07:38:22;95237.47;;;7.49;100.00
740;BME280;354;42.694;23.336;2023-02-23T07:40:50;95247.72;;;7.78;100.00
740;BME280;354;42.694;23.336;2023-02-23T07:43:16;95250.97;;;7.80;100.00
740;BME280;354;42.694;23.336;2023-02-23T07:45:41;95250.13;;;7.80;100.00
740;BME280;354;42.694;23.336;2023-02-23T07:48:08;95235.91;;;7.96;100.00
740;BME280;354;42.694;23.336;2023-02-23T07:50:33;95241.84;;;8.17;100.00
740;BME280;354;42.694;23.336;2023-02-23T07:53:00;95228.47;;;7.92;100.00
740;BME280;354;42.694;23.336;2023-02-23T07:55:26;95230.22;;;7.85;100.00
740;BME280;354;42.694;23.336;2023-02-23T07:57:51;95234.41;;;8.21;100.00
740;BME280;354;42.694;23.336;2023-02-23T08:00:17;95228.63;;;8.32;100.00
740;BME280;354;42.694;23.336;2023-02-23T08:02:43;95223.63;;;8.37;100.00
740;BME280;354;42.694;23.336;2023-02-23T08:05:09;95238.41;;;8.65;100.00
740;BME280;354;42.694;23.336;2023-02-23T08:07:34;95229.91;;;8.50;100.00
740;BME280;354;42.694;23.336;2023-02-23T08:10:00;95201.47;;;8.47;100.00
740;BME280;354;42.694;23.336;2023-02-23T08:12:25;95228.94;;;8.77;100.00
740;BME280;354;42.694;23.336;2023-02-23T08:14:51;95226.75;;;8.87;100.00
740;BME280;354;42.694;23.336;2023-02-23T08:17:18;95232.41;;;8.97;100.00
740;BME280;354;42.694;23.336;2023-02-23T08:19:43;95215.44;;;8.93;100.00
740;BME280;354;42.694;23.336;2023-02-23T08:22:08;95233.22;;;9.11;100.00
740;BME280;354;42.694;23.336;2023-02-23T08:24:41;95235.25;;;9.16;100.00
740;BME280;354;42.694;23.336;2023-02-23T08:27:06;95223.13;;;9.28;100.00
740;BME280;354;42.694;23.336;2023-02-23T08:29:31;95236.66;;;9.45;100.00
740;BME280;354;42.694;23.336;2023-02-23T08:32:01;95197.69;;;9.35;100.00
740;BME280;354;42.694;23.336;2023-02-23T08:34:26;95229.97;;;9.56;100.00
740;BME280;354;42.694;23.336;2023-02-23T08:36:52;95216.66;;;9.57;100.00
740;BME280;354;42.694;23.336;2023-02-23T08:39:18;95214.81;;;9.64;100.00
740;BME280;354;42.694;23.336;2023-02-23T08:41:43;95231.53;;;9.76;100.00
740;BME280;354;42.694;23.336;2023-02-23T08:44:09;95227.13;;;9.70;100.00
740;BME280;354;42.694;23.336;2023-02-23T08:46:34;95225.47;;;9.89;100.00
740;BME280;354;42.694;23.336;2023-02-23T08:48:59;95207.06;;;9.96;100.00
740;BME280;354;42.694;23.336;2023-02-23T08:51:25;95216.03;;;10.26;100.00
740;BME280;354;42.694;23.336;2023-02-23T08:53:50;95218.06;;;10.31;100.00
740;BME280;354;42.694;23.336;2023-02-23T08:56:16;95212.41;;;10.21;100.00
740;BME280;354;42.694;23.336;2023-02-23T08:58:41;95231.63;;;10.28;100.00
740;BME280;354;42.694;23.336;2023-02-23T09:01:14;95207.69;;;10.43;100.00
740;BME280;354;42.694;23.336;2023-02-23T09:03:41;95218.13;;;10.56;100.00
740;BME280;354;42.694;23.336;2023-02-23T09:06:10;95214.63;;;10.69;100.00
740;BME280;354;42.694;23.336;2023-02-23T09:08:36;95206.50;;;10.77;100.00
740;BME280;354;42.694;23.336;2023-02-23T09:11:02;95218.63;;;10.78;100.00
740;BME280;354;42.694;23.336;2023-02-23T09:13:27;95206.97;;;10.92;100.00
740;BME280;354;42.694;23.336;2023-02-23T09:15:53;95213.19;;;11.04;100.00
740;BME280;354;42.694;23.336;2023-02-23T09:18:19;95201.50;;;10.94;99.20
740;BME280;354;42.694;23.336;2023-02-23T09:20:44;95217.75;;;11.16;98.87
740;BME280;354;42.694;23.336;2023-02-23T09:23:11;95204.16;;;11.19;97.73
740;BME280;354;42.694;23.336;2023-02-23T09:25:43;95225.41;;;11.42;98.46
740;BME280;354;42.694;23.336;2023-02-23T09:28:18;95216.66;;;11.48;94.53
740;BME280;354;42.694;23.336;2023-02-23T09:30:44;95210.16;;;11.51;92.61
740;BME280;354;42.694;23.336;2023-02-23T09:33:11;95199.38;;;11.34;92.54
740;BME280;354;42.694;23.336;2023-02-23T09:35:37;95216.97;;;11.58;93.57
740;BME280;354;42.694;23.336;2023-02-23T09:38:05;95203.53;;;11.67;93.17
740;BME280;354;42.694;23.336;2023-02-23T09:40:51;95222.53;;;11.94;90.82
740;BME280;354;42.694;23.336;2023-02-23T09:43:24;95218.34;;;12.04;89.53
740;BME280;354;42.694;23.336;2023-02-23T09:46:02;95215.41;;;12.12;88.69
740;BME280;354;42.694;23.336;2023-02-23T09:48:33;95195.28;;;12.00;88.65
740;BME280;354;42.694;23.336;2023-02-23T09:51:00;95206.63;;;12.37;87.20
740;BME280;354;42.694;23.336;2023-02-23T09:53:44;95195.16;;;12.43;86.01
740;BME280;354;42.694;23.336;2023-02-23T09:56:26;95205.94;;;12.72;85.52
740;BME280;354;42.694;23.336;2023-02-23T09:58:54;95196.31;;;12.77;83.80
740;BME280;354;42.694;23.336;2023-02-23T10:18:23;95194.84;;;13.35;77.93
740;BME280;354;42.694;23.336;2023-02-23T10:23:51;95184.28;;;13.47;77.91
740;BME280;354;42.694;23.336;2023-02-23T10:26:24;95182.09;;;13.55;76.62
740;BME280;354;42.694;23.336;2023-02-23T10:28:52;95179.81;;;13.47;75.72
740;BME280;354;42.694;23.336;2023-02-23T10:33:43;95140.63;;;13.44;74.58
740;BME280;354;42.694;23.336;2023-02-23T10:36:30;95145.56;;;13.52;74.13
740;BME280;354;42.694;23.336;2023-02-23T10:38:57;95160.28;;;13.60;74.56
740;BME280;354;42.694;23.336;2023-02-23T10:41:23;95160.47;;;13.82;74.56
740;BME280;354;42.694;23.336;2023-02-23T10:43:49;95149.53;;;13.78;73.18
740;BME280;354;42.694;23.336;2023-02-23T10:46:20;95146.69;;;13.80;73.08
740;BME280;354;42.694;23.336;2023-02-23T10:48:47;95143.03;;;13.69;72.76
740;BME280;354;42.694;23.336;2023-02-23T10:51:17;95140.78;;;13.89;72.46
740;BME280;354;42.694;23.336;2023-02-23T10:53:44;95130.09;;;13.96;71.98
740;BME280;354;42.694;23.336;2023-02-23T10:56:11;95149.63;;;14.07;71.31
740;BME280;354;42.694;23.336;2023-02-23T10:58:52;95134.03;;;14.22;70.70
740;BME280;354;42.694;23.336;2023-02-23T11:01:38;95108.31;;;14.17;70.32
740;BME280;354;42.694;23.336;2023-02-23T11:04:21;95140.16;;;14.39;69.52
740;BME280;354;42.694;23.336;2023-02-23T11:06:49;95127.31;;;14.31;70.65
740;BME280;354;42.694;23.336;2023-02-23T11:09:26;95121.44;;;14.41;69.53
740;BME280;354;42.694;23.336;2023-02-23T11:12:00;95138.78;;;14.48;70.45
740;BME280;354;42.694;23.336;2023-02-23T11:14:28;95127.03;;;14.56;69.70
740;BME280;354;42.694;23.336;2023-02-23T11:16:58;95127.53;;;14.70;69.22
740;BME280;354;42.694;23.336;2023-02-23T11:19:35;95122.78;;;14.89;68.37
740;BME280;354;42.694;23.336;2023-02-23T11:22:02;95105.63;;;15.08;67.20
740;BME280;354;42.694;23.336;2023-02-23T11:24:33;95120.53;;;15.14;66.61
740;BME280;354;42.694;23.336;2023-02-23T11:27:00;95106.09;;;15.22;65.73
740;BME280;354;42.694;23.336;2023-02-23T11:29:42;95116.03;;;15.32;65.35
740;BME280;354;42.694;23.336;2023-02-23T11:32:20;95107.41;;;15.58;63.97
740;BME280;354;42.694;23.336;2023-02-23T11:34:47;95106.91;;;15.78;62.63
740;BME280;354;42.694;23.336;2023-02-23T11:37:32;95083.38;;;15.65;62.05
740;BME280;354;42.694;23.336;2023-02-23T11:40:00;95101.81;;;15.76;61.34
740;BME280;354;42.694;23.336;2023-02-23T11:42:28;95099.69;;;15.95;62.32
740;BME280;354;42.694;23.336;2023-02-23T11:47:33;95090.66;;;16.18;61.45
740;BME280;354;42.694;23.336;2023-02-23T11:50:03;95068.94;;;16.21;60.08
740;BME280;354;42.694;23.336;2023-02-23T11:52:29;95084.84;;;16.48;59.53
740;BME280;354;42.694;23.336;2023-02-23T11:54:58;95092.19;;;16.68;58.76
740;BME280;354;42.694;23.336;2023-02-23T11:57:28;95090.25;;;16.58;58.88
740;BME280;354;42.694;23.336;2023-02-23T11:59:56;95082.44;;;16.47;56.24
740;BME280;354;42.694;23.336;2023-02-23T12:02:28;95080.84;;;16.46;56.83
740;BME280;354;42.694;23.336;2023-02-23T12:05:07;95080.00;;;16.40;56.67
740;BME280;354;42.694;23.336;2023-02-23T12:07:38;95084.50;;;16.40;57.07
740;BME280;354;42.694;23.336;2023-02-23T12:15:47;95070.81;;;16.53;55.58
740;BME280;354;42.694;23.336;2023-02-23T12:21:29;95049.03;;;16.78;54.45
740;BME280;354;42.694;23.336;2023-02-23T12:24:14;95071.31;;;17.09;54.76
740;BME280;354;42.694;23.336;2023-02-23T12:27:21;95072.34;;;17.08;53.24
740;BME280;354;42.694;23.336;2023-02-23T12:30:13;95068.66;;;17.14;53.47
740;BME280;354;42.694;23.336;2023-02-23T12:35:27;95064.91;;;17.47;51.59
740;BME280;354;42.694;23.336;2023-02-23T12:37:58;95058.22;;;17.45;51.38
740;BME280;354;42.694;23.336;2023-02-23T12:40:32;95068.84;;;17.45;50.86
740;BME280;354;42.694;23.336;2023-02-23T12:50:43;95046.88;;;17.59;50.73
740;BME280;354;42.694;23.336;2023-02-23T12:54:02;95063.41;;;17.72;51.67
740;BME280;354;42.694;23.336;2023-02-23T12:59:46;95055.19;;;17.73;52.12
740;BME280;354;42.694;23.336;2023-02-23T13:02:22;95060.81;;;17.82;51.60
740;BME280;354;42.694;23.336;2023-02-23T13:08:41;95047.78;;;17.85;51.04
740;BME280;354;42.694;23.336;2023-02-23T13:14:10;95049.72;;;17.43;51.71
740;BME280;354;42.694;23.336;2023-02-23T13:16:43;95052.03;;;17.34;51.67
740;BME280;354;42.694;23.336;2023-02-23T13:19:57;95045.94;;;17.33;51.50
740;BME280;354;42.694;23.336;2023-02-23T13:22:29;95048.56;;;17.28;51.49
740;BME280;354;42.694;23.336;2023-02-23T13:24:59;95052.09;;;17.44;51.08
740;BME280;354;42.694;23.336;2023-02-23T13:27:34;95036.38;;;17.37;51.29
740;BME280;354;42.694;23.336;2023-02-23T13:30:01;95046.03;;;17.54;51.02
740;BME280;354;42.694;23.336;2023-02-23T13:32:30;95045.28;;;17.63;50.70
740;BME280;354;42.694;23.336;2023-02-23T13:34:59;95033.84;;;17.63;51.54
740;BME280;354;42.694;23.336;2023-02-23T13:40:45;95044.56;;;17.73;49.96
740;BME280;354;42.694;23.336;2023-02-23T13:43:18;95047.72;;;17.70;50.56
740;BME280;354;42.694;23.336;2023-02-23T13:48:34;95053.94;;;17.86;50.26
740;BME280;354;42.694;23.336;2023-02-23T13:51:13;95040.31;;;17.77;51.34
740;BME280;354;42.694;23.336;2023-02-23T13:54:03;95054.78;;;17.97;50.12
740;BME280;354;42.694;23.336;2023-02-23T13:56:33;95053.66;;;17.82;49.56
740;BME280;354;42.694;23.336;2023-02-23T13:59:08;95053.63;;;17.77;50.03
740;BME280;354;42.694;23.336;2023-02-23T14:01:44;95053.59;;;17.72;49.31
740;BME280;354;42.694;23.336;2023-02-23T14:04:20;95048.59;;;17.81;49.26
740;BME280;354;42.694;23.336;2023-02-23T14:06:54;95050.66;;;17.74;48.97
740;BME280;354;42.694;23.336;2023-02-23T14:09:28;95035.72;;;17.68;48.61
740;BME280;354;42.694;23.336;2023-02-23T14:19:43;95050.56;;;17.53;50.42
740;BME280;354;42.694;23.336;2023-02-23T14:22:23;95047.94;;;17.11;54.08
740;BME280;354;42.694;23.336;2023-02-23T14:27:56;95057.63;;;16.63;57.32
740;BME280;354;42.694;23.336;2023-02-23T14:30:29;95050.28;;;16.43;59.23
740;BME280;354;42.694;23.336;2023-02-23T14:33:34;95062.13;;;16.08;61.33
740;BME280;354;42.694;23.336;2023-02-23T14:36:01;95043.91;;;15.90;62.97
740;BME280;354;42.694;23.336;2023-02-23T14:40:53;95057.06;;;15.80;65.60
740;BME280;354;42.694;23.336;2023-02-23T14:46:00;95054.91;;;15.77;65.54
740;BME280;354;42.694;23.336;2023-02-23T14:48:30;95054.72;;;15.84;64.92
740;BME280;354;42.694;23.336;2023-02-23T14:51:20;95059.22;;;15.83;63.06
740;BME280;354;42.694;23.336;2023-02-23T14:53:47;95065.88;;;15.86;62.92
740;BME280;354;42.694;23.336;2023-02-23T14:56:22;95062.63;;;15.78;62.94
740;BME280;354;42.694;23.336;2023-02-23T14:58:52;95050.03;;;15.69;62.75
740;BME280;354;42.694;23.336;2023-02-23T15:01:37;95053.25;;;15.54;62.72
740;BME280;354;42.694;23.336;2023-02-23T15:04:12;95064.91;;;15.53;63.30
740;BME280;354;42.694;23.336;2023-02-23T15:06:38;95060.38;;;15.32;63.74
740;BME280;354;42.694;23.336;2023-02-23T15:09:07;95057.44;;;15.28;63.83
740;BME280;354;42.694;23.336;2023-02-23T15:11:33;95053.44;;;15.09;63.97
740;BME280;354;42.694;23.336;2023-02-23T15:14:01;95072.25;;;15.07;64.59
740;BME280;354;42.694;23.336;2023-02-23T15:16:30;95076.75;;;14.90;64.94
740;BME280;354;42.694;23.336;2023-02-23T15:18:59;95081.72;;;14.86;65.93
740;BME280;354;42.694;23.336;2023-02-23T15:21:27;95082.34;;;14.76;65.97
740;BME280;354;42.694;23.336;2023-02-23T15:24:12;95094.88;;;14.64;66.56
740;BME280;354;42.694;23.336;2023-02-23T15:26:40;95099.44;;;14.52;67.49
740;BME280;354;42.694;23.336;2023-02-23T15:29:19;95107.69;;;14.44;68.36
740;BME280;354;42.694;23.336;2023-02-23T15:31:52;95107.75;;;14.32;69.40
740;BME280;354;42.694;23.336;2023-02-23T15:34:25;95106.13;;;14.14;70.42
740;BME280;354;42.694;23.336;2023-02-23T15:36:57;95114.56;;;14.00;71.50
740;BME280;354;42.694;23.336;2023-02-23T15:39:34;95094.28;;;13.77;72.65
740;BME280;354;42.694;23.336;2023-02-23T15:42:04;95133.47;;;13.80;73.03